createdAt,value
2019-05-01T00:00:41.701Z,4.97
2019-05-01T00:01:42.036Z,4.45
2019-05-01T00:02:50.631Z,4.70
2019-05-01T00:03:55.045Z,4.45
2019-05-01T00:04:52.494Z,4.10
2019-05-01T00:05:36.040Z,4.95
2019-05-01T00:06:14.948Z,3.70
2019-05-01T00:06:56.192Z,4.55
2019-05-01T00:07:39.011Z,4.08
2019-05-01T00:08:18.469Z,4.33
2019-05-01T00:08:59.976Z,3.80
2019-05-01T00:09:39.278Z,3.70
2019-05-01T00:10:18.355Z,4.30
2019-05-01T00:10:57.337Z,3.80
2019-05-01T00:11:36.850Z,3.60
2019-05-01T00:12:15.949Z,3.90
2019-05-01T00:12:54.953Z,3.95
2019-05-01T00:13:33.711Z,4.35
2019-05-01T00:14:13.345Z,4.50
2019-05-01T00:14:52.073Z,4.20
2019-05-01T00:15:33.927Z,4.10
2019-05-01T00:16:12.860Z,4.55
2019-05-01T00:16:51.665Z,4.50
2019-05-01T00:17:31.199Z,4.80
2019-05-01T00:18:10.736Z,4.03
2019-05-01T00:18:50.736Z,3.47
2019-05-01T00:19:30.068Z,4.45
2019-05-01T00:20:09.272Z,4.50
2019-05-01T00:20:48.091Z,4.10
2019-05-01T00:21:26.746Z,4.33
2019-05-01T00:22:05.925Z,4.12
2019-05-01T00:22:45.053Z,4.17
2019-05-01T00:23:24.258Z,4.20
2019-05-01T00:24:03.433Z,4.00
2019-05-01T00:24:43.039Z,4.00
2019-05-01T00:25:22.521Z,3.98
2019-05-01T00:26:01.877Z,4.17
2019-05-01T00:26:40.540Z,3.80
2019-05-01T00:27:20.118Z,4.45
2019-05-01T00:27:59.641Z,4.15
2019-05-01T00:28:38.830Z,4.30
2019-05-01T00:29:18.140Z,3.92
2019-05-01T00:29:57.516Z,3.98
2019-05-01T00:30:37.156Z,4.00
2019-05-01T00:31:16.286Z,3.65
2019-05-01T00:31:56.495Z,4.20
2019-05-01T00:32:35.503Z,3.70
2019-05-01T00:33:15.422Z,3.80
2019-05-01T00:33:54.605Z,3.70
2019-05-01T00:34:34.015Z,3.92
2019-05-01T00:35:12.664Z,4.20
2019-05-01T00:35:51.851Z,4.30
2019-05-01T00:36:31.410Z,3.58
2019-05-01T00:37:10.813Z,3.80
2019-05-01T00:37:50.072Z,3.50
2019-05-01T00:38:28.831Z,3.85
2019-05-01T00:39:09.298Z,4.45
2019-05-01T00:39:47.980Z,4.33
2019-05-01T00:40:26.725Z,4.17
2019-05-01T00:41:06.048Z,4.10
2019-05-01T00:41:45.431Z,3.87
2019-05-01T00:42:24.789Z,4.58
2019-05-01T00:43:04.660Z,4.10
2019-05-01T00:43:44.090Z,3.90
2019-05-01T00:44:23.466Z,3.60
2019-05-01T00:45:02.521Z,3.92
2019-05-01T00:45:42.113Z,3.83
2019-05-01T00:46:20.902Z,3.70
2019-05-01T00:46:59.547Z,4.30
2019-05-01T00:47:38.317Z,3.85
2019-05-01T00:48:17.045Z,3.92
2019-05-01T00:48:55.673Z,4.30
2019-05-01T00:49:35.067Z,3.98
2019-05-01T00:50:14.150Z,5.05
2019-05-01T00:50:52.817Z,3.95
2019-05-01T00:51:32.196Z,4.35
2019-05-01T00:52:11.029Z,4.22
2019-05-01T00:52:49.722Z,4.17
2019-05-01T00:53:28.572Z,4.90
2019-05-01T00:54:07.402Z,4.17
2019-05-01T00:54:47.983Z,4.00
2019-05-01T00:56:02.955Z,4.55
2019-05-01T00:56:55.899Z,4.20
2019-05-01T00:57:41.069Z,3.70
2019-05-01T00:58:36.191Z,4.00
2019-05-01T00:59:45.829Z,3.80
2019-05-01T01:00:51.572Z,3.20
2019-05-01T01:01:46.555Z,4.72
2019-05-01T01:02:34.558Z,3.80
2019-05-01T01:03:13.768Z,3.98
2019-05-01T01:03:52.671Z,4.22
2019-05-01T01:04:32.066Z,3.80
2019-05-01T01:05:10.859Z,4.20
2019-05-01T01:05:50.270Z,4.20
2019-05-01T01:06:29.188Z,3.80
2019-05-01T01:07:08.438Z,4.50
2019-05-01T01:07:47.098Z,4.05
2019-05-01T01:08:26.317Z,4.00
2019-05-01T01:09:05.702Z,3.70
2019-05-01T01:09:44.397Z,3.67
2019-05-01T01:10:23.739Z,3.83
2019-05-01T01:11:02.416Z,3.42
2019-05-01T01:11:42.001Z,3.80
2019-05-01T01:12:21.034Z,4.15
2019-05-01T01:13:00.115Z,3.77
2019-05-01T01:13:39.010Z,4.50
2019-05-01T01:14:17.675Z,4.03
2019-05-01T01:14:56.531Z,4.15
2019-05-01T01:15:35.877Z,4.20
2019-05-01T01:16:15.701Z,3.98
2019-05-01T01:16:55.133Z,3.83
2019-05-01T01:17:33.848Z,3.92
2019-05-01T01:18:12.813Z,4.17
2019-05-01T01:18:52.499Z,4.12
2019-05-01T01:19:31.252Z,3.22
2019-05-01T01:20:10.096Z,4.03
2019-05-01T01:20:49.821Z,3.85
2019-05-01T01:21:29.288Z,3.90
2019-05-01T01:22:08.262Z,4.25
2019-05-01T01:22:47.589Z,3.80
2019-05-01T01:23:26.762Z,3.60
2019-05-01T01:24:06.030Z,3.70
2019-05-01T01:24:45.171Z,3.80
2019-05-01T01:25:23.966Z,3.72
2019-05-01T01:26:02.651Z,3.80
2019-05-01T01:26:41.953Z,3.80
2019-05-01T01:27:20.876Z,3.60
2019-05-01T01:28:00.131Z,3.98
2019-05-01T01:28:39.085Z,3.77
2019-05-01T01:29:18.875Z,4.00
2019-05-01T01:29:58.017Z,3.67
2019-05-01T01:30:37.068Z,4.10
2019-05-01T01:31:15.970Z,3.75
2019-05-01T01:31:55.079Z,3.90
2019-05-01T01:32:34.337Z,3.50
2019-05-01T01:33:13.050Z,3.70
2019-05-01T01:33:51.876Z,3.70
2019-05-01T01:34:30.808Z,3.98
2019-05-01T01:35:09.808Z,3.55
2019-05-01T01:35:48.858Z,3.55
2019-05-01T01:36:27.978Z,4.12
2019-05-01T01:37:07.265Z,3.70
2019-05-01T01:37:46.730Z,4.10
2019-05-01T01:38:25.389Z,4.10
2019-05-01T01:39:04.187Z,3.52
2019-05-01T01:39:43.198Z,3.50
2019-05-01T01:40:22.445Z,4.28
2019-05-01T01:41:01.561Z,3.70
2019-05-01T01:41:40.451Z,4.00
2019-05-01T01:42:19.197Z,3.90
2019-05-01T01:43:00.400Z,4.20
2019-05-01T01:44:04.403Z,3.60
2019-05-01T01:44:50.063Z,3.90
2019-05-01T01:45:44.917Z,4.08
2019-05-01T01:46:24.233Z,3.92
2019-05-01T01:47:03.081Z,3.70
2019-05-01T01:48:00.031Z,3.45
2019-05-01T01:48:39.376Z,3.90
2019-05-01T01:49:18.491Z,3.83
2019-05-01T01:49:58.045Z,4.22
2019-05-01T01:50:37.412Z,4.07
2019-05-01T01:51:16.139Z,3.50
2019-05-01T01:51:54.919Z,4.00
2019-05-01T01:52:34.227Z,3.60
2019-05-01T01:53:13.110Z,3.75
2019-05-01T01:53:52.316Z,3.72
2019-05-01T01:54:31.775Z,3.92
2019-05-01T01:55:11.083Z,3.58
2019-05-01T01:55:49.900Z,3.90
2019-05-01T01:56:28.476Z,4.10
2019-05-01T01:57:07.817Z,3.45
2019-05-01T01:57:46.548Z,3.70
2019-05-01T01:58:25.272Z,3.45
2019-05-01T01:59:04.631Z,3.47
2019-05-01T01:59:43.531Z,3.62
2019-05-01T02:00:23.781Z,3.50
2019-05-01T02:01:19.561Z,4.10
2019-05-01T02:02:22.635Z,3.83
2019-05-01T02:03:03.916Z,3.35
2019-05-01T02:03:45.119Z,3.90
2019-05-01T02:04:41.842Z,3.87
2019-05-01T02:05:24.715Z,3.85
2019-05-01T02:06:03.683Z,3.27
2019-05-01T02:06:42.362Z,3.17
2019-05-01T02:07:21.699Z,3.90
2019-05-01T02:08:01.093Z,3.70
2019-05-01T02:08:40.186Z,3.97
2019-05-01T02:09:19.606Z,4.00
2019-05-01T02:09:58.871Z,3.05
2019-05-01T02:10:42.838Z,3.67
2019-05-01T02:11:18.361Z,3.05
2019-05-01T02:11:57.593Z,3.90
2019-05-01T02:12:36.840Z,3.40
2019-05-01T02:13:15.545Z,3.47
2019-05-01T02:13:58.136Z,3.37
2019-05-01T02:14:36.893Z,3.95
2019-05-01T02:15:15.596Z,3.60
2019-05-01T02:15:56.789Z,3.80
2019-05-01T02:16:36.206Z,3.87
2019-05-01T02:17:14.984Z,3.80
2019-05-01T02:17:54.282Z,3.95
2019-05-01T02:18:33.363Z,4.20
2019-05-01T02:19:13.023Z,3.85
2019-05-01T02:19:52.414Z,3.85
2019-05-01T02:20:32.113Z,4.15
2019-05-01T02:21:11.583Z,3.40
2019-05-01T02:21:50.783Z,3.90
2019-05-01T02:22:30.105Z,3.77
2019-05-01T02:23:08.883Z,4.10
2019-05-01T02:23:47.601Z,4.53
2019-05-01T02:24:27.056Z,4.55
2019-05-01T02:25:07.439Z,3.85
2019-05-01T02:25:47.035Z,3.83
2019-05-01T02:26:27.408Z,3.95
2019-05-01T02:27:10.510Z,4.15
2019-05-01T02:28:07.760Z,3.75
2019-05-01T02:28:52.204Z,4.08
2019-05-01T02:29:36.742Z,4.90
2019-05-01T02:30:16.920Z,4.35
2019-05-01T02:31:26.681Z,4.55
2019-05-01T02:31:50.626Z,3.55
2019-05-01T02:32:30.595Z,4.17
2019-05-01T02:33:10.048Z,4.72
2019-05-01T02:33:48.895Z,4.03
2019-05-01T02:34:27.515Z,4.05
2019-05-01T02:35:06.464Z,3.52
2019-05-01T02:35:45.657Z,4.28
2019-05-01T02:36:24.698Z,4.47
2019-05-01T02:37:03.945Z,3.95
2019-05-01T02:37:43.560Z,4.45
2019-05-01T02:38:22.919Z,4.50
2019-05-01T02:39:02.461Z,4.60
2019-05-01T02:39:42.008Z,4.50
2019-05-01T02:41:03.588Z,3.87
2019-05-01T02:41:45.554Z,3.98
2019-05-01T02:42:25.955Z,4.10
2019-05-01T02:43:05.131Z,4.00
2019-05-01T02:43:44.178Z,4.22
2019-05-01T02:44:29.149Z,4.65
2019-05-01T02:45:07.885Z,4.15
2019-05-01T02:45:46.788Z,5.08
2019-05-01T02:46:26.116Z,4.00
2019-05-01T02:47:06.275Z,4.15
2019-05-01T02:47:45.437Z,4.45
2019-05-01T02:48:24.995Z,4.45
2019-05-01T02:49:09.623Z,4.05
2019-05-01T02:49:56.582Z,4.78
2019-05-01T02:50:35.939Z,4.40
2019-05-01T02:51:15.292Z,4.33
2019-05-01T02:51:54.748Z,4.87
2019-05-01T02:52:37.034Z,4.47
2019-05-01T02:53:16.283Z,4.17
2019-05-01T02:53:55.535Z,4.25
2019-05-01T02:54:34.293Z,5.03
2019-05-01T02:55:22.541Z,4.30
2019-05-01T02:56:25.969Z,4.40
2019-05-01T02:57:12.095Z,4.70
2019-05-01T02:57:50.788Z,4.80
2019-05-01T02:58:30.471Z,4.90
2019-05-01T02:59:09.791Z,4.65
2019-05-01T02:59:49.656Z,4.33
2019-05-01T03:00:28.375Z,4.85
2019-05-01T03:01:07.160Z,4.17
2019-05-01T03:01:47.888Z,4.25
2019-05-01T03:02:27.075Z,4.95
2019-05-01T03:03:06.331Z,4.55
2019-05-01T03:03:45.633Z,5.37
2019-05-01T03:04:25.103Z,5.25
2019-05-01T03:05:04.453Z,4.50
2019-05-01T03:05:43.741Z,4.72
2019-05-01T03:06:22.916Z,5.22
2019-05-01T03:07:01.606Z,4.58
2019-05-01T03:07:40.989Z,5.10
2019-05-01T03:08:20.637Z,4.47
2019-05-01T03:08:59.721Z,4.72
2019-05-01T03:09:38.811Z,5.00
2019-05-01T03:10:17.531Z,5.17
2019-05-01T03:10:56.687Z,4.83
2019-05-01T03:11:35.444Z,4.80
2019-05-01T03:12:14.394Z,5.15
2019-05-01T03:12:53.149Z,5.17
2019-05-01T03:13:32.372Z,5.40
2019-05-01T03:14:11.537Z,4.33
2019-05-01T03:14:51.247Z,4.60
2019-05-01T03:15:30.192Z,5.00
2019-05-01T03:16:08.880Z,4.90
2019-05-01T03:16:47.896Z,5.08
2019-05-01T03:17:43.609Z,5.00
2019-05-01T03:18:31.175Z,5.70
2019-05-01T03:19:12.714Z,5.58
2019-05-01T03:20:03.505Z,5.15
2019-05-01T03:20:51.962Z,5.30
2019-05-01T03:21:38.736Z,4.20
2019-05-01T03:22:28.995Z,5.08
2019-05-01T03:23:32.374Z,5.40
2019-05-01T03:24:17.343Z,4.83
2019-05-01T03:24:56.528Z,5.40
2019-05-01T03:25:35.889Z,4.47
2019-05-01T03:26:14.602Z,5.15
2019-05-01T03:26:53.428Z,5.10
2019-05-01T03:27:33.400Z,4.95
2019-05-01T03:28:14.298Z,5.05
2019-05-01T03:28:54.072Z,5.45
2019-05-01T03:29:32.758Z,5.65
2019-05-01T03:30:12.003Z,4.83
2019-05-01T03:30:50.819Z,5.00
2019-05-01T03:31:29.988Z,5.12
2019-05-01T03:32:18.594Z,5.70
2019-05-01T03:32:52.093Z,5.33
2019-05-01T03:33:31.469Z,5.40
2019-05-01T03:34:10.306Z,6.05
2019-05-01T03:34:52.587Z,5.00
2019-05-01T03:35:29.633Z,5.70
2019-05-01T03:36:08.965Z,5.10
2019-05-01T03:36:48.645Z,5.75
2019-05-01T03:37:28.091Z,5.25
2019-05-01T03:38:07.608Z,5.05
2019-05-01T03:38:46.537Z,4.87
2019-05-01T03:39:25.898Z,5.03
2019-05-01T03:40:05.350Z,4.40
2019-05-01T03:40:44.640Z,5.55
2019-05-01T03:41:23.317Z,4.55
2019-05-01T03:42:02.210Z,5.10
2019-05-01T03:42:44.807Z,5.20
2019-05-01T03:43:24.052Z,5.58
2019-05-01T03:44:03.580Z,5.40
2019-05-01T03:44:42.262Z,5.37
2019-05-01T03:45:21.003Z,4.85
2019-05-01T03:46:00.518Z,5.55
2019-05-01T03:46:39.933Z,5.00
2019-05-01T03:47:19.347Z,5.75
2019-05-01T03:47:58.677Z,5.80
2019-05-01T03:48:38.268Z,5.53
2019-05-01T03:49:17.946Z,5.60
2019-05-01T03:49:56.745Z,5.20
2019-05-01T03:50:35.415Z,5.23
2019-05-01T03:51:14.111Z,4.80
2019-05-01T03:51:52.912Z,5.40
2019-05-01T03:52:31.837Z,5.20
2019-05-01T03:53:11.307Z,5.00
2019-05-01T03:53:50.874Z,5.17
2019-05-01T03:54:31.881Z,5.50
2019-05-01T03:55:09.726Z,4.83
2019-05-01T03:55:49.025Z,5.50
2019-05-01T03:56:28.936Z,4.93
2019-05-01T03:57:08.363Z,5.37
2019-05-01T03:57:47.323Z,5.10
2019-05-01T03:58:27.119Z,5.53
2019-05-01T03:59:06.565Z,5.40
2019-05-01T03:59:45.957Z,5.40
2019-05-01T04:00:35.837Z,5.70
2019-05-01T04:01:21.196Z,4.80
2019-05-01T04:02:11.064Z,5.60
2019-05-01T04:03:08.018Z,5.47
2019-05-01T04:03:51.102Z,5.67
2019-05-01T04:04:31.440Z,6.20
2019-05-01T04:05:10.331Z,4.90
2019-05-01T04:05:49.053Z,4.90
2019-05-01T04:06:28.202Z,5.80
2019-05-01T04:07:07.733Z,5.10
2019-05-01T04:07:46.360Z,5.53
2019-05-01T04:08:25.807Z,5.57
2019-05-01T04:09:05.509Z,5.90
2019-05-01T04:09:44.432Z,5.60
2019-05-01T04:10:23.572Z,5.37
2019-05-01T04:11:02.899Z,5.63
2019-05-01T04:11:42.082Z,5.40
2019-05-01T04:12:20.835Z,5.17
2019-05-01T04:12:59.968Z,5.60
2019-05-01T04:13:38.720Z,4.90
2019-05-01T04:14:17.546Z,5.50
2019-05-01T04:14:56.717Z,4.97
2019-05-01T04:15:35.369Z,5.47
2019-05-01T04:16:14.199Z,4.93
2019-05-01T04:16:58.684Z,5.33
2019-05-01T04:17:43.071Z,5.35
2019-05-01T04:18:22.311Z,4.77
2019-05-01T04:19:01.682Z,5.00
2019-05-01T04:19:40.415Z,5.00
2019-05-01T04:20:19.152Z,5.17
2019-05-01T04:20:58.627Z,5.08
2019-05-01T04:21:51.602Z,5.23
2019-05-01T04:22:31.103Z,5.20
2019-05-01T04:23:10.498Z,5.13
2019-05-01T04:23:49.141Z,5.13
2019-05-01T04:24:28.081Z,5.30
2019-05-01T04:25:07.884Z,4.70
2019-05-01T04:25:47.119Z,4.97
2019-05-01T04:26:25.828Z,4.80
2019-05-01T04:27:05.730Z,5.27
2019-05-01T04:27:47.131Z,5.85
2019-05-01T04:29:00.599Z,5.22
2019-05-01T04:29:52.561Z,4.50
2019-05-01T04:30:48.678Z,4.62
2019-05-01T04:31:43.331Z,5.35
2019-05-01T04:32:28.562Z,5.10
2019-05-01T04:33:09.130Z,4.97
2019-05-01T04:33:48.173Z,5.23
2019-05-01T04:34:54.950Z,5.03
2019-05-01T04:35:53.081Z,4.78
2019-05-01T04:36:36.900Z,5.10
2019-05-01T04:37:16.518Z,4.75
2019-05-01T04:37:57.273Z,5.00
2019-05-01T04:38:36.195Z,4.67
2019-05-01T04:39:15.548Z,5.05
2019-05-01T04:39:54.693Z,4.93
2019-05-01T04:40:33.888Z,4.77
2019-05-01T04:41:12.937Z,4.53
2019-05-01T04:41:51.648Z,4.83
2019-05-01T04:42:30.841Z,4.57
2019-05-01T04:43:10.442Z,4.28
2019-05-01T04:43:49.112Z,4.78
2019-05-01T04:44:27.836Z,5.00
2019-05-01T04:45:06.531Z,4.53
2019-05-01T04:45:46.750Z,4.45
2019-05-01T04:46:25.469Z,4.65
2019-05-01T04:47:04.175Z,4.22
2019-05-01T04:47:43.490Z,4.53
2019-05-01T04:48:22.273Z,4.53
2019-05-01T04:49:01.708Z,4.47
2019-05-01T04:49:40.405Z,4.60
2019-05-01T04:50:19.573Z,4.70
2019-05-01T04:50:58.243Z,4.63
2019-05-01T04:51:37.270Z,4.90
2019-05-01T04:52:16.260Z,5.10
2019-05-01T04:52:55.223Z,4.47
2019-05-01T04:53:34.737Z,4.50
2019-05-01T04:54:13.391Z,4.63
2019-05-01T04:54:54.632Z,4.90
2019-05-01T04:55:33.375Z,5.10
2019-05-01T04:56:12.359Z,5.20
2019-05-01T04:56:51.845Z,5.00
2019-05-01T04:57:30.739Z,5.00
2019-05-01T04:58:09.469Z,5.70
2019-05-01T04:58:48.096Z,4.50
2019-05-01T04:59:26.859Z,4.47
2019-05-01T05:00:06.346Z,5.50
2019-05-01T05:00:45.561Z,4.80
2019-05-01T05:01:24.502Z,4.70
2019-05-01T05:02:04.863Z,4.57
2019-05-01T05:03:04.547Z,5.33
2019-05-01T05:03:36.497Z,4.23
2019-05-01T05:04:15.687Z,4.60
2019-05-01T05:04:54.302Z,5.10
2019-05-01T05:05:33.096Z,5.07
2019-05-01T05:06:12.350Z,4.60
2019-05-01T05:06:51.887Z,4.33
2019-05-01T05:07:30.647Z,5.10
2019-05-01T05:08:09.391Z,4.77
2019-05-01T05:08:48.407Z,4.33
2019-05-01T05:10:00.704Z,5.00
2019-05-01T05:10:39.325Z,4.47
2019-05-01T05:11:22.796Z,4.63
2019-05-01T05:12:03.405Z,4.70
2019-05-01T05:12:51.464Z,4.90
2019-05-01T05:13:46.977Z,4.77
2019-05-01T05:14:28.485Z,4.57
2019-05-01T05:15:24.512Z,4.80
2019-05-01T05:16:12.623Z,4.57
2019-05-01T05:17:12.803Z,4.77
2019-05-01T05:17:51.354Z,5.03
2019-05-01T05:18:30.051Z,5.80
2019-05-01T05:19:08.689Z,4.30
2019-05-01T05:19:48.137Z,5.07
2019-05-01T05:20:27.532Z,5.17
2019-05-01T05:21:06.857Z,4.20
2019-05-01T05:21:46.166Z,4.93
2019-05-01T05:22:25.632Z,4.27
2019-05-01T05:23:04.868Z,4.80
2019-05-01T05:23:44.433Z,4.70
2019-05-01T05:24:23.089Z,4.93
2019-05-01T05:25:01.854Z,4.50
2019-05-01T05:25:40.535Z,4.50
2019-05-01T05:26:19.237Z,4.63
2019-05-01T05:26:58.393Z,4.30
2019-05-01T05:27:37.737Z,3.57
2019-05-01T05:28:16.970Z,4.70
2019-05-01T05:28:56.317Z,4.70
2019-05-01T05:29:35.470Z,4.80
2019-05-01T05:30:14.787Z,5.10
2019-05-01T05:30:53.627Z,3.93
2019-05-01T05:31:32.351Z,4.87
2019-05-01T05:32:11.737Z,4.27
2019-05-01T05:32:50.718Z,4.47
2019-05-01T05:33:29.288Z,4.13
2019-05-01T05:34:08.684Z,4.37
2019-05-01T05:34:47.979Z,4.90
2019-05-01T05:35:27.206Z,4.03
2019-05-01T05:36:06.935Z,4.33
2019-05-01T05:36:45.605Z,4.47
2019-05-01T05:37:28.598Z,4.57
2019-05-01T05:38:35.649Z,4.07
2019-05-01T05:39:23.270Z,4.50
2019-05-01T05:40:02.584Z,4.57
2019-05-01T05:40:41.374Z,4.60
2019-05-01T05:41:21.266Z,4.57
2019-05-01T05:41:59.935Z,4.83
2019-05-01T05:42:39.478Z,4.30
2019-05-01T05:43:18.543Z,3.63
2019-05-01T05:43:57.277Z,3.60
2019-05-01T05:44:36.302Z,3.63
2019-05-01T05:45:14.944Z,3.97
2019-05-01T05:45:53.675Z,3.90
2019-05-01T05:46:32.430Z,4.70
2019-05-01T05:47:11.201Z,3.83
2019-05-01T05:47:50.154Z,3.70
2019-05-01T05:48:28.913Z,3.73
2019-05-01T05:49:08.164Z,4.33
2019-05-01T05:49:46.815Z,4.23
2019-05-01T05:50:26.915Z,4.53
2019-05-01T05:51:28.282Z,4.83
2019-05-01T05:52:31.178Z,4.00
2019-05-01T05:53:11.152Z,3.90
2019-05-01T05:53:50.613Z,3.80
2019-05-01T05:54:59.694Z,3.87
2019-05-01T05:55:42.344Z,4.10
2019-05-01T05:56:26.324Z,3.63
2019-05-01T05:57:12.994Z,4.00
2019-05-01T05:58:08.624Z,3.57
2019-05-01T05:58:50.815Z,3.67
2019-05-01T05:59:30.928Z,3.30
2019-05-01T06:00:31.938Z,3.70
2019-05-01T06:01:21.474Z,4.33
2019-05-01T06:02:18.210Z,4.07
2019-05-01T06:03:07.514Z,3.17
2019-05-01T06:03:58.879Z,3.90
2019-05-01T06:05:06.556Z,3.40
2019-05-01T06:06:06.628Z,3.70
2019-05-01T06:06:54.533Z,3.40
2019-05-01T06:07:44.084Z,3.30
2019-05-01T06:08:24.554Z,4.23
2019-05-01T06:09:03.231Z,4.40
2019-05-01T06:10:05.778Z,3.30
2019-05-01T06:10:53.697Z,3.83
2019-05-01T06:12:09.038Z,3.00
2019-05-01T06:13:13.211Z,3.50
2019-05-01T06:14:15.477Z,3.70
2019-05-01T06:15:02.346Z,3.40
2019-05-01T06:16:02.774Z,3.10
2019-05-01T06:16:52.155Z,3.70
2019-05-01T06:17:54.491Z,3.23
2019-05-01T06:18:55.112Z,3.30
2019-05-01T06:19:55.113Z,4.40
2019-05-01T06:20:42.683Z,3.80
2019-05-01T06:21:40.286Z,3.83
2019-05-01T06:22:33.335Z,3.53
2019-05-01T06:23:28.765Z,3.80
2019-05-01T06:24:16.107Z,3.60
2019-05-01T06:24:59.111Z,3.60
2019-05-01T06:25:39.245Z,3.23
2019-05-01T06:26:32.218Z,3.50
2019-05-01T06:27:13.861Z,3.83
2019-05-01T06:27:52.283Z,4.10
2019-05-01T06:28:31.201Z,3.70
2019-05-01T06:29:10.664Z,3.90
2019-05-01T06:29:50.104Z,3.40
2019-05-01T06:30:28.920Z,3.90
2019-05-01T06:31:22.877Z,3.53
2019-05-01T06:32:01.138Z,3.33
2019-05-01T06:32:40.395Z,4.07
2019-05-01T06:33:19.963Z,3.73
2019-05-01T06:33:59.351Z,3.90
2019-05-01T06:34:38.791Z,3.70
2019-05-01T06:35:17.443Z,3.30
2019-05-01T06:35:56.099Z,3.57
2019-05-01T06:36:35.089Z,3.70
2019-05-01T06:37:14.500Z,3.33
2019-05-01T06:38:05.034Z,3.43
2019-05-01T06:38:43.732Z,3.10
2019-05-01T06:39:22.602Z,3.47
2019-05-01T06:40:02.986Z,3.17
2019-05-01T06:40:46.381Z,3.53
2019-05-01T06:41:28.750Z,3.00
2019-05-01T06:42:09.844Z,3.53
2019-05-01T06:42:50.097Z,3.33
2019-05-01T06:43:47.186Z,3.50
2019-05-01T06:44:44.045Z,3.17
2019-05-01T06:45:22.675Z,3.30
2019-05-01T06:46:21.941Z,3.63
2019-05-01T06:47:19.353Z,3.37
2019-05-01T06:48:03.412Z,3.37
2019-05-01T06:48:43.552Z,3.17
2019-05-01T06:49:38.923Z,3.63
2019-05-01T06:50:37.140Z,3.00
2019-05-01T06:51:30.913Z,3.20
2019-05-01T06:52:10.710Z,3.47
2019-05-01T06:52:49.418Z,3.50
2019-05-01T06:53:28.043Z,3.10
2019-05-01T06:54:11.471Z,3.23
2019-05-01T06:54:47.810Z,3.20
2019-05-01T06:55:28.914Z,2.90
2019-05-01T06:56:07.900Z,3.37
2019-05-01T06:56:47.283Z,3.50
2019-05-01T06:57:26.182Z,3.57
2019-05-01T06:58:05.663Z,3.50
2019-05-01T06:58:45.062Z,3.60
2019-05-01T06:59:26.193Z,3.00
2019-05-01T07:00:08.038Z,3.20
2019-05-01T07:00:47.747Z,3.23
2019-05-01T07:01:27.569Z,2.90
2019-05-01T07:02:06.665Z,3.10
2019-05-01T07:02:45.654Z,3.50
2019-05-01T07:03:24.940Z,3.20
2019-05-01T07:04:04.200Z,3.40
2019-05-01T07:04:43.824Z,2.80
2019-05-01T07:05:23.085Z,3.10
2019-05-01T07:06:13.822Z,3.67
2019-05-01T07:06:41.838Z,2.97
2019-05-01T07:07:27.367Z,3.00
2019-05-01T07:08:00.744Z,3.17
2019-05-01T07:08:39.700Z,3.10
2019-05-01T07:09:27.870Z,3.10
2019-05-01T07:09:59.241Z,3.80
2019-05-01T07:10:44.288Z,3.23
2019-05-01T07:11:18.440Z,3.10
2019-05-01T07:11:57.550Z,3.10
2019-05-01T07:12:36.759Z,2.83
2019-05-01T07:13:16.289Z,3.07
2019-05-01T07:13:55.745Z,3.73
2019-05-01T07:14:34.679Z,3.50
2019-05-01T07:15:14.518Z,3.20
2019-05-01T07:15:53.601Z,3.00
2019-05-01T07:16:38.063Z,3.00
2019-05-01T07:17:14.837Z,2.80
2019-05-01T07:17:54.304Z,3.07
2019-05-01T07:18:32.945Z,3.57
2019-05-01T07:19:12.410Z,3.13
2019-05-01T07:20:18.720Z,3.53
2019-05-01T07:20:57.742Z,2.90
2019-05-01T07:21:36.971Z,2.90
2019-05-01T07:22:17.688Z,3.33
2019-05-01T07:22:56.939Z,3.00
2019-05-01T07:23:36.286Z,3.20
2019-05-01T07:24:16.115Z,2.50
2019-05-01T07:24:58.888Z,2.97
2019-05-01T07:25:39.459Z,3.27
2019-05-01T07:26:17.002Z,3.00
2019-05-01T07:26:56.553Z,3.20
2019-05-01T07:27:35.294Z,3.23
2019-05-01T07:28:13.959Z,3.10
2019-05-01T07:28:54.188Z,3.27
2019-05-01T07:29:35.067Z,3.17
2019-05-01T07:30:34.510Z,2.97
2019-05-01T07:31:16.043Z,2.70
2019-05-01T07:31:55.343Z,2.90
2019-05-01T07:32:36.415Z,3.20
2019-05-01T07:33:16.738Z,3.10
2019-05-01T07:33:56.056Z,2.90
2019-05-01T07:34:34.759Z,3.30
2019-05-01T07:35:14.380Z,3.17
2019-05-01T07:35:54.046Z,3.17
2019-05-01T07:36:33.611Z,2.90
2019-05-01T07:37:12.810Z,2.73
2019-05-01T07:37:51.512Z,2.80
2019-05-01T07:38:32.870Z,3.23
2019-05-01T07:39:14.672Z,2.90
2019-05-01T07:39:51.822Z,2.63
2019-05-01T07:40:30.555Z,3.40
2019-05-01T07:41:12.290Z,3.30
2019-05-01T07:41:50.183Z,3.00
2019-05-01T07:42:30.192Z,2.87
2019-05-01T07:43:26.826Z,2.90
2019-05-01T07:44:16.061Z,3.30
2019-05-01T07:44:56.302Z,2.97
2019-05-01T07:45:44.815Z,3.53
2019-05-01T07:46:32.671Z,2.70
2019-05-01T07:47:25.832Z,3.20
2019-05-01T07:48:05.588Z,2.67
2019-05-01T07:48:43.950Z,2.90
2019-05-01T07:49:26.363Z,6.07
2019-05-01T07:50:07.529Z,2.97
2019-05-01T07:50:46.178Z,3.10
2019-05-01T07:51:25.546Z,3.33
2019-05-01T07:52:22.807Z,3.57
2019-05-01T07:53:01.497Z,3.10
2019-05-01T07:53:40.891Z,6.00
2019-05-01T07:54:19.977Z,3.87
2019-05-01T07:54:59.831Z,3.90
2019-05-01T07:55:39.287Z,3.00
2019-05-01T07:56:18.390Z,3.50
2019-05-01T07:56:58.740Z,2.80
2019-05-01T07:57:39.658Z,2.93
2019-05-01T07:58:18.324Z,3.07
2019-05-01T07:58:57.053Z,2.90
2019-05-01T07:59:36.363Z,2.50
2019-05-01T08:00:25.668Z,3.23
2019-05-01T08:01:12.988Z,2.77
2019-05-01T08:02:01.169Z,2.80
2019-05-01T08:02:40.363Z,2.83
2019-05-01T08:03:19.681Z,2.80
2019-05-01T08:03:58.826Z,2.97
2019-05-01T08:04:38.047Z,3.00
2019-05-01T08:05:16.774Z,3.23
2019-05-01T08:05:55.467Z,2.90
2019-05-01T08:06:34.412Z,2.60
2019-05-01T08:07:13.874Z,2.70
2019-05-01T08:07:52.469Z,2.33
2019-05-01T08:08:31.809Z,3.00
2019-05-01T08:09:14.890Z,2.70
2019-05-01T08:09:51.486Z,2.80
2019-05-01T08:10:33.729Z,3.20
2019-05-01T08:11:12.156Z,3.03
2019-05-01T08:11:51.079Z,3.03
2019-05-01T08:12:30.595Z,2.67
2019-05-01T08:13:10.561Z,2.60
2019-05-01T08:13:49.238Z,2.87
2019-05-01T08:14:28.813Z,2.80
2019-05-01T08:15:08.116Z,2.83
2019-05-01T08:15:47.538Z,3.27
2019-05-01T08:16:26.866Z,2.43
2019-05-01T08:17:06.031Z,2.60
2019-05-01T08:17:48.766Z,2.60
2019-05-01T08:18:36.163Z,2.73
2019-05-01T08:19:22.969Z,3.00
2019-05-01T08:20:14.952Z,2.70
2019-05-01T08:20:56.834Z,2.90
2019-05-01T08:22:01.769Z,2.40
2019-05-01T08:22:40.817Z,2.80
2019-05-01T08:23:20.184Z,3.37
2019-05-01T08:23:59.635Z,2.70
2019-05-01T08:24:38.939Z,3.23
2019-05-01T08:25:17.729Z,2.93
2019-05-01T08:25:56.479Z,2.73
2019-05-01T08:26:35.168Z,3.70
2019-05-01T08:27:26.984Z,3.33
2019-05-01T08:28:16.435Z,3.30
2019-05-01T08:29:26.374Z,3.40
2019-05-01T08:30:23.130Z,3.60
2019-05-01T08:31:27.651Z,3.10
2019-05-01T08:32:38.931Z,2.60
2019-05-01T08:33:49.854Z,2.90
2019-05-01T08:34:29.782Z,2.77
2019-05-01T08:35:12.335Z,2.97
2019-05-01T08:35:50.940Z,3.03
2019-05-01T08:36:30.159Z,3.10
2019-05-01T08:37:08.815Z,2.87
2019-05-01T08:37:47.442Z,2.90
2019-05-01T08:38:29.766Z,3.00
2019-05-01T08:39:09.076Z,3.07
2019-05-01T08:39:48.773Z,3.17
2019-05-01T08:40:27.426Z,2.93
2019-05-01T08:41:07.000Z,2.70
2019-05-01T08:41:45.643Z,3.27
2019-05-01T08:42:24.246Z,2.90
2019-05-01T08:43:21.239Z,2.50
2019-05-01T08:44:01.021Z,2.80
2019-05-01T08:44:49.859Z,3.10
2019-05-01T08:45:59.626Z,2.60
2019-05-01T08:46:59.076Z,3.33
2019-05-01T08:47:38.473Z,2.33
2019-05-01T08:48:35.733Z,2.80
2019-05-01T08:49:33.031Z,2.47
2019-05-01T08:50:15.582Z,2.60
2019-05-01T08:50:58.793Z,2.77
2019-05-01T08:51:36.027Z,2.60
2019-05-01T08:52:16.175Z,2.93
2019-05-01T08:52:55.289Z,2.20
2019-05-01T08:53:34.261Z,2.67
2019-05-01T08:54:13.621Z,2.67
2019-05-01T08:54:54.818Z,2.57
2019-05-01T08:55:33.629Z,2.57
2019-05-01T08:56:17.120Z,2.80
2019-05-01T08:56:57.961Z,2.73
2019-05-01T08:57:39.214Z,2.53
2019-05-01T08:58:16.308Z,2.57
2019-05-01T08:58:58.099Z,2.23
2019-05-01T08:59:37.140Z,2.47
2019-05-01T09:00:15.937Z,2.20
2019-05-01T09:00:55.258Z,2.50
2019-05-01T09:01:34.471Z,2.53
2019-05-01T09:02:13.574Z,2.63
2019-05-01T09:02:52.310Z,2.50
2019-05-01T09:03:31.392Z,2.60
2019-05-01T09:04:13.199Z,2.63
2019-05-01T09:05:01.682Z,2.40
2019-05-01T09:05:33.911Z,3.10
2019-05-01T09:06:12.329Z,2.53
2019-05-01T09:06:51.243Z,2.27
2019-05-01T09:07:30.503Z,2.50
2019-05-01T09:08:09.239Z,2.63
2019-05-01T09:08:47.975Z,2.30
2019-05-01T09:09:26.953Z,2.60
2019-05-01T09:10:08.973Z,2.23
2019-05-01T09:10:49.459Z,2.47
2019-05-01T09:11:27.296Z,2.37
2019-05-01T09:12:06.973Z,2.30
2019-05-01T09:12:48.244Z,2.47
2019-05-01T09:13:27.979Z,2.30
2019-05-01T09:14:06.924Z,3.20
2019-05-01T09:14:46.216Z,2.60
2019-05-01T09:15:25.366Z,2.50
2019-05-01T09:16:04.749Z,2.70
2019-05-01T09:16:44.071Z,2.47
2019-05-01T09:17:23.267Z,2.30
2019-05-01T09:18:01.899Z,2.53
2019-05-01T09:18:40.644Z,5.37
2019-05-01T09:19:19.673Z,2.50
2019-05-01T09:19:58.372Z,2.90
2019-05-01T09:20:38.099Z,3.20